Time;durP1;ratioP1;P1;durP2;ratioP2;P2;SDS_P1;SDS_P2;PMS_P1;PMS_P2;Temp;Humidity;BMP_temperature;BMP_pressure;BME280_temperature;BME280_humidity;BME280_pressure;Samples;Min_cycle;Max_cycle;Signal;HPM_P1;HPM_P2
2024/01/05 00:00:09;;;;;;;17.30;3.35;;;10.30;99.90;;;;;;4198735;28;20072;-66
2024/01/05 00:02:11;;;;;;;14.35;2.80;;;10.30;99.90;;;;;;4197997;28;20408;-66
2024/01/05 00:04:17;;;;;;;11.90;2.67;;;10.30;99.90;;;;;;4198371;28;20048;-66
2024/01/05 00:06:20;;;;;;;12.57;3.00;;;10.40;99.90;;;;;;4198270;28;20051;-65
2024/01/05 00:08:23;;;;;;;13.98;2.72;;;10.30;99.90;;;;;;4198293;28;20056;-66
2024/01/05 00:10:25;;;;;;;12.07;2.75;;;10.40;99.90;;;;;;4198843;28;20041;-66
2024/01/05 00:12:27;;;;;;;13.90;2.50;;;10.50;99.90;;;;;;4200992;28;20067;-67
2024/01/05 00:14:29;;;;;;;8.27;2.33;;;10.40;99.90;;;;;;4201996;28;20045;-67
2024/01/05 00:16:31;;;;;;;11.25;2.40;;;10.50;99.90;;;;;;4201963;28;20135;-66
2024/01/05 00:18:33;;;;;;;14.45;3.25;;;10.50;99.90;;;;;;4202135;28;20049;-67
2024/01/05 00:20:37;;;;;;;12.27;2.60;;;10.50;99.90;;;;;;4201129;28;20106;-66
2024/01/05 00:22:40;;;;;;;9.52;2.42;;;10.50;99.90;;;;;;4183777;28;20045;-66
2024/01/05 00:24:42;;;;;;;12.38;2.70;;;10.50;99.90;;;;;;4201553;28;20055;-66
2024/01/05 00:26:44;;;;;;;13.50;2.83;;;10.50;99.90;;;;;;4201298;28;20052;-66
2024/01/05 00:28:48;;;;;;;11.38;2.20;;;10.50;99.90;;;;;;4201622;28;20048;-65
2024/01/05 00:30:53;;;;;;;9.85;2.00;;;10.50;99.90;;;;;;4200526;28;20131;-66
2024/01/05 00:32:55;;;;;;;8.65;2.60;;;10.50;99.90;;;;;;4200971;28;20045;-65
2024/01/05 00:34:58;;;;;;;14.27;2.42;;;10.50;99.90;;;;;;4201026;28;20075;-66
2024/01/05 00:37:01;;;;;;;9.32;2.25;;;10.50;99.90;;;;;;4200149;28;20047;-67
2024/01/05 00:39:04;;;;;;;13.65;2.78;;;10.50;99.90;;;;;;4182785;28;20068;-65
2024/01/05 00:41:07;;;;;;;7.38;2.47;;;10.60;99.90;;;;;;4201223;28;20048;-67
2024/01/05 00:43:09;;;;;;;8.82;2.63;;;10.50;99.90;;;;;;4202426;28;20053;-66
2024/01/05 00:45:11;;;;;;;14.15;2.13;;;10.50;99.90;;;;;;4202878;28;20434;-67
2024/01/05 00:47:13;;;;;;;7.88;2.08;;;10.50;99.90;;;;;;4201040;28;20071;-67
2024/01/05 00:49:16;;;;;;;11.48;2.30;;;10.60;99.90;;;;;;4200669;28;20487;-65
2024/01/05 00:51:18;;;;;;;11.88;2.50;;;10.50;99.90;;;;;;4200684;28;20388;-67
2024/01/05 00:53:22;;;;;;;6.22;1.80;;;10.50;99.90;;;;;;4200761;28;20392;-66
2024/01/05 00:55:24;;;;;;;11.13;2.53;;;10.50;99.90;;;;;;4200805;28;20475;-66
2024/01/05 00:57:27;;;;;;;10.10;2.15;;;10.50;99.90;;;;;;4201258;28;20044;-67
2024/01/05 00:59:29;;;;;;;8.75;2.10;;;10.50;99.90;;;;;;4201376;28;20056;-67
2024/01/05 01:01:31;;;;;;;7.18;1.90;;;10.50;99.90;;;;;;4182797;28;20124;-66
2024/01/05 01:03:34;;;;;;;9.63;2.28;;;10.50;99.90;;;;;;4201228;28;20508;-67
2024/01/05 01:05:36;;;;;;;7.82;2.03;;;10.50;99.90;;;;;;4200106;28;20102;-65
2024/01/05 01:07:39;;;;;;;8.23;2.10;;;10.50;99.90;;;;;;4202279;28;20044;-72
2024/01/05 01:09:43;;;;;;;6.95;1.58;;;10.50;99.90;;;;;;4200949;28;20487;-66
2024/01/05 01:11:45;;;;;;;10.18;2.15;;;10.50;99.90;;;;;;4200671;28;20174;-69
2024/01/05 01:13:47;;;;;;;4.38;1.48;;;10.40;99.90;;;;;;4200493;28;20055;-68
2024/01/05 01:15:49;;;;;;;7.50;1.60;;;10.40;99.90;;;;;;4182634;28;20144;-68
2024/01/05 01:17:51;;;;;;;3.22;1.00;;;10.40;99.90;;;;;;4199937;28;20036;-67
2024/01/05 01:19:54;;;;;;;4.63;1.10;;;10.40;99.90;;;;;;4200336;28;20078;-65
2024/01/05 01:21:56;;;;;;;5.35;1.20;;;10.40;99.90;;;;;;4200589;28;20048;-66
2024/01/05 01:23:58;;;;;;;5.00;1.20;;;10.30;99.90;;;;;;4183525;28;20068;-66
2024/01/05 01:26:01;;;;;;;4.00;1.00;;;10.30;99.90;;;;;;4200388;28;20449;-68
2024/01/05 01:28:04;;;;;;;5.82;0.95;;;10.20;99.90;;;;;;4200669;28;20419;-67
2024/01/05 01:30:08;;;;;;;2.33;0.88;;;10.20;99.90;;;;;;4200219;28;20128;-67
2024/01/05 01:32:10;;;;;;;2.30;1.00;;;10.20;99.90;;;;;;4200528;28;20072;-66
2024/01/05 01:34:12;;;;;;;5.13;0.90;;;10.20;99.90;;;;;;4200820;28;20044;-66
2024/01/05 01:36:14;;;;;;;3.55;0.90;;;10.20;99.70;;;;;;4201991;28;20056;-66
2024/01/05 01:38:17;;;;;;;4.28;0.73;;;10.20;99.60;;;;;;4200675;28;20048;-67
2024/01/05 01:40:19;;;;;;;3.95;0.90;;;10.10;99.10;;;;;;4200598;28;20076;-65
2024/01/05 01:42:23;;;;;;;2.95;0.88;;;10.10;99.50;;;;;;4200095;28;20410;-65
2024/01/05 01:44:26;;;;;;;1.50;0.50;;;10.10;99.60;;;;;;4200354;28;20049;-67
2024/01/05 01:46:29;;;;;;;2.35;0.70;;;10.10;99.40;;;;;;4182569;28;20045;-66
2024/01/05 01:48:32;;;;;;;1.55;0.65;;;10.00;99.40;;;;;;4200587;28;20457;-66
2024/01/05 01:50:34;;;;;;;2.67;0.80;;;10.10;99.90;;;;;;4199756;28;20131;-67
2024/01/05 01:52:38;;;;;;;2.95;0.70;;;10.00;99.40;;;;;;4199645;28;20056;-66
2024/01/05 01:54:40;;;;;;;2.75;0.75;;;10.00;99.50;;;;;;4182561;28;20128;-68
2024/01/05 01:56:44;;;;;;;2.47;0.80;;;10.00;99.40;;;;;;4185408;28;20045;-71
2024/01/05 01:58:48;;;;;;;3.45;0.57;;;10.00;99.60;;;;;;4166702;28;20059;-68
2024/01/05 02:00:51;;;;;;;2.03;0.63;;;10.00;99.70;;;;;;4184937;28;20052;-66
2024/01/05 02:02:54;;;;;;;1.90;0.50;;;10.00;99.50;;;;;;4184318;28;20049;-67
2024/01/05 02:04:56;;;;;;;1.65;0.65;;;10.00;99.60;;;;;;4184361;28;20052;-66
2024/01/05 02:06:59;;;;;;;1.88;0.70;;;10.00;99.70;;;;;;4184649;28;20064;-66
2024/01/05 02:09:01;;;;;;;2.63;0.88;;;10.00;99.50;;;;;;4182648;28;20041;-67
2024/01/05 02:11:03;;;;;;;2.15;0.60;;;10.00;99.00;;;;;;4182528;28;20041;-65
2024/01/05 02:13:05;;;;;;;2.25;0.80;;;9.90;99.20;;;;;;4182573;28;20063;-67
2024/01/05 02:15:09;;;;;;;0.63;0.45;;;9.90;99.10;;;;;;4183200;28;20084;-66
2024/01/05 02:17:27;;;;;;;2.63;0.60;;;9.90;98.90;;;;;;4182868;28;20076;-66
2024/01/05 02:19:30;;;;;;;1.23;0.70;;;9.90;99.10;;;;;;4182686;28;20068;-66
2024/01/05 02:21:38;;;;;;;1.80;0.90;;;9.90;99.00;;;;;;4182505;28;20045;-67
2024/01/05 02:23:45;;;;;;;2.17;0.82;;;9.90;98.90;;;;;;4184813;28;20053;-71
2024/01/05 02:25:48;;;;;;;1.45;0.40;;;9.90;99.00;;;;;;4184530;28;20049;-70
2024/01/05 02:27:50;;;;;;;2.28;0.50;;;9.90;99.00;;;;;;4184077;28;20045;-67
2024/01/05 02:29:52;;;;;;;2.58;0.75;;;9.90;99.00;;;;;;4183243;28;20381;-66
2024/01/05 02:31:57;;;;;;;2.80;0.50;;;9.90;99.00;;;;;;4181916;28;20051;-66
2024/01/05 02:33:59;;;;;;;4.38;0.90;;;9.90;99.00;;;;;;4165054;28;20488;-66
2024/01/05 02:36:02;;;;;;;1.40;0.63;;;9.90;98.90;;;;;;4183447;28;20455;-66
2024/01/05 02:38:05;;;;;;;4.03;1.30;;;9.90;98.90;;;;;;4184319;28;20049;-66
2024/01/05 02:40:11;;;;;;;2.22;0.70;;;9.80;99.10;;;;;;4167720;28;20056;-70
2024/01/05 02:42:15;;;;;;;1.95;0.63;;;9.90;99.10;;;;;;4167518;28;20095;-68
2024/01/05 02:44:20;;;;;;;5.03;1.40;;;9.80;98.90;;;;;;4183965;28;20105;-66
2024/01/05 02:46:23;;;;;;;5.50;2.35;;;9.80;98.40;;;;;;4183378;28;20060;-66
2024/01/05 02:48:27;;;;;;;2.72;0.90;;;9.80;98.50;;;;;;4183762;28;20163;-67
2024/01/05 02:50:29;;;;;;;2.50;0.73;;;9.80;98.90;;;;;;4183224;28;20049;-66
2024/01/05 02:52:31;;;;;;;3.42;0.63;;;9.80;98.90;;;;;;4182841;28;20063;-66
2024/01/05 02:54:39;;;;;;;2.60;0.75;;;9.80;98.80;;;;;;4183558;28;20473;-65
2024/01/05 02:57:02;;;;;;;2.60;0.90;;;9.80;98.80;;;;;;4199531;28;20045;-67
2024/01/05 02:59:06;;;;;;;3.72;1.88;;;9.80;99.20;;;;;;4182137;28;20144;-66
2024/01/05 03:01:15;;;;;;;2.10;0.80;;;9.70;99.10;;;;;;4200126;28;20044;-68
2024/01/05 03:03:20;;;;;;;0.85;0.40;;;9.70;99.20;;;;;;4166435;28;20060;-70
2024/01/05 03:05:27;;;;;;;1.85;0.70;;;9.70;99.10;;;;;;4182928;28;20051;-66
2024/01/05 03:07:30;;;;;;;2.15;0.90;;;9.70;99.00;;;;;;4199908;28;20100;-66
2024/01/05 03:09:34;;;;;;;2.70;1.25;;;9.70;99.20;;;;;;4199787;28;20055;-71
2024/01/05 03:11:39;;;;;;;;;;;9.70;99.10;;;;;;4200399;28;20044;-67
2024/01/05 03:13:43;;;;;;;4.10;1.10;;;9.70;99.30;;;;;;4199444;28;19920;-67
2024/01/05 03:15:46;;;;;;;2.83;1.02;;;9.70;99.70;;;;;;4199754;28;20052;-66
2024/01/05 03:17:48;;;;;;;2.55;0.88;;;9.70;99.50;;;;;;4200221;28;20460;-70
2024/01/05 03:19:54;;;;;;;2.05;0.80;;;9.70;99.30;;;;;;4199910;28;20051;-67
2024/01/05 03:21:56;;;;;;;4.75;1.10;;;9.70;99.40;;;;;;4199938;28;20044;-68
2024/01/05 03:23:58;;;;;;;4.65;0.90;;;9.70;99.70;;;;;;4200090;28;20047;-67
2024/01/05 03:26:01;;;;;;;2.63;0.60;;;9.70;99.60;;;;;;4199723;28;20044;-66
2024/01/05 03:28:04;;;;;;;2.47;0.55;;;9.70;99.60;;;;;;4182474;28;20046;-72
2024/01/05 03:30:08;;;;;;;3.47;0.85;;;9.60;99.60;;;;;;4199282;28;20052;-68
2024/01/05 03:32:12;;;;;;;2.83;0.60;;;9.60;99.50;;;;;;4200505;28;20106;-65
2024/01/05 03:34:16;;;;;;;1.27;0.60;;;9.60;99.80;;;;;;4199899;28;20064;-68
2024/01/05 03:36:20;;;;;;;5.25;2.45;;;9.60;99.70;;;;;;4199618;28;20467;-71
2024/01/05 03:38:22;;;;;;;2.53;0.90;;;9.60;99.90;;;;;;4199986;28;20052;-65
2024/01/05 03:40:29;;;;;;;3.15;1.02;;;9.60;99.80;;;;;;4182747;28;20479;-67
2024/01/05 03:42:34;;;;;;;4.38;0.88;;;9.60;99.90;;;;;;4182336;28;20090;-66
2024/01/05 03:44:42;;;;;;;3.75;1.95;;;9.60;99.90;;;;;;4199650;28;20123;-66
2024/01/05 03:46:48;;;;;;;5.05;2.22;;;9.40;99.90;;;;;;4199542;28;20044;-67
2024/01/05 03:48:51;;;;;;;3.47;1.73;;;9.40;99.90;;;;;;4200195;28;20119;-73
2024/01/05 03:50:55;;;;;;;2.90;1.38;;;9.40;99.90;;;;;;4199653;28;20044;-66
2024/01/05 03:52:58;;;;;;;4.88;1.13;;;9.30;99.90;;;;;;4199701;28;20158;-67
2024/01/05 03:55:01;;;;;;;4.65;1.20;;;9.20;99.90;;;;;;4199692;28;20049;-67
2024/01/05 03:57:04;;;;;;;6.00;2.10;;;9.20;99.90;;;;;;4199423;28;20052;-68
2024/01/05 03:59:06;;;;;;;4.43;1.48;;;9.20;99.90;;;;;;4199507;28;20051;-66
2024/01/05 04:01:09;;;;;;;3.22;0.88;;;9.20;99.90;;;;;;4199713;28;20052;-68
2024/01/05 04:03:13;;;;;;;3.67;1.10;;;9.10;99.90;;;;;;4199590;28;20052;-66
2024/01/05 04:05:15;;;;;;;2.30;0.60;;;9.10;99.90;;;;;;4182001;28;20059;-66
2024/01/05 04:07:17;;;;;;;2.15;0.63;;;9.10;99.90;;;;;;4199676;28;20045;-67
2024/01/05 04:09:19;;;;;;;1.73;0.80;;;9.10;99.90;;;;;;4200042;28;20086;-70
2024/01/05 04:11:22;;;;;;;1.77;0.70;;;9.10;99.90;;;;;;4199630;28;20046;-67
2024/01/05 04:13:25;;;;;;;4.38;1.02;;;9.10;99.90;;;;;;4198681;28;20094;-65
2024/01/05 04:15:37;;;;;;;2.35;0.77;;;9.10;99.90;;;;;;4199337;28;20094;-66
2024/01/05 04:17:39;;;;;;;6.57;1.02;;;9.10;99.90;;;;;;4199279;28;20484;-71
2024/01/05 04:19:44;;;;;;;3.33;1.00;;;9.00;99.90;;;;;;4199484;28;20076;-67
2024/01/05 04:21:46;;;;;;;2.77;0.80;;;9.00;99.90;;;;;;4198162;28;20136;-68
2024/01/05 04:23:49;;;;;;;3.30;1.00;;;8.90;99.90;;;;;;4180603;28;20056;-66
2024/01/05 04:25:52;;;;;;;3.55;1.00;;;8.90;99.90;;;;;;4199133;28;20052;-67
2024/01/05 04:27:56;;;;;;;6.40;1.00;;;8.80;99.90;;;;;;4199165;28;20063;-66
2024/01/05 04:30:07;;;;;;;3.13;1.02;;;8.80;99.90;;;;;;4180071;28;20057;-67
2024/01/05 04:32:12;;;;;;;2.95;1.27;;;8.70;99.90;;;;;;4180942;28;20051;-68
2024/01/05 04:34:15;;;;;;;2.67;0.80;;;8.70;99.90;;;;;;4199109;28;20040;-66
2024/01/05 04:36:19;;;;;;;4.55;1.10;;;8.70;99.90;;;;;;4180831;28;20053;-68
2024/01/05 04:38:21;;;;;;;2.88;1.02;;;8.60;99.90;;;;;;4180945;28;20045;-66
2024/01/05 04:40:24;;;;;;;4.30;1.27;;;8.60;99.90;;;;;;4199448;28;20045;-67
2024/01/05 04:42:31;;;;;;;7.72;1.58;;;8.60;99.90;;;;;;4198885;28;20116;-67
2024/01/05 04:44:34;;;;;;;5.32;0.90;;;8.50;99.90;;;;;;4199006;28;20415;-67
2024/01/05 04:46:39;;;;;;;4.22;1.00;;;8.50;99.90;;;;;;4199453;28;20125;-69
2024/01/05 04:48:41;;;;;;;6.45;1.50;;;8.50;99.90;;;;;;4199690;28;20051;-68
2024/01/05 04:50:44;;;;;;;4.63;1.10;;;8.40;99.90;;;;;;4199133;28;20059;-67
2024/01/05 04:52:48;;;;;;;4.43;1.10;;;8.40;99.90;;;;;;4181521;28;20467;-67
2024/01/05 04:54:51;;;;;;;6.20;0.95;;;8.40;99.90;;;;;;4199054;28;20044;-67
2024/01/05 04:56:53;;;;;;;9.45;1.25;;;8.40;99.90;;;;;;4200366;28;20044;-67
2024/01/05 04:58:56;;;;;;;4.00;0.98;;;8.40;99.90;;;;;;4184567;28;20115;-68
2024/01/05 05:00:58;;;;;;;4.18;0.80;;;8.40;99.90;;;;;;4202738;28;20058;-67
2024/01/05 05:03:00;;;;;;;8.02;1.23;;;8.40;99.90;;;;;;4202380;28;20080;-67
2024/01/05 05:05:05;;;;;;;6.45;1.40;;;8.40;99.90;;;;;;4202893;28;20057;-66
2024/01/05 05:07:11;;;;;;;4.70;1.08;;;8.30;99.90;;;;;;4185257;28;20118;-66
2024/01/05 05:09:17;;;;;;;4.93;1.27;;;8.30;99.90;;;;;;4202613;28;20056;-68
2024/01/05 05:11:20;;;;;;;5.18;1.25;;;8.30;99.90;;;;;;4184125;28;20072;-68
2024/01/05 05:13:31;;;;;;;6.68;1.10;;;8.20;99.90;;;;;;4184017;28;20484;-67
2024/01/05 05:15:36;;;;;;;3.42;1.00;;;8.20;99.90;;;;;;4201500;28;20131;-66
2024/01/05 05:17:39;;;;;;;6.43;1.23;;;8.20;99.90;;;;;;4201746;28;20052;-67
2024/01/05 05:19:42;;;;;;;5.15;1.20;;;8.20;99.90;;;;;;4183768;28;20423;-65
2024/01/05 05:21:47;;;;;;;2.47;1.08;;;8.20;99.90;;;;;;4202197;28;20053;-68
2024/01/05 05:23:50;;;;;;;;;;;8.20;99.90;;;;;;4202623;28;20044;-68
2024/01/05 05:25:54;;;;;;;3.63;1.20;;;8.10;99.90;;;;;;4201410;28;20351;-67
2024/01/05 05:27:56;;;;;;;5.32;1.20;;;8.10;99.90;;;;;;4202287;28;20102;-68
2024/01/05 05:29:58;;;;;;;5.15;1.25;;;8.10;99.90;;;;;;4200973;28;20048;-68
2024/01/05 05:32:00;;;;;;;4.90;1.15;;;8.10;99.90;;;;;;4200427;28;20049;-66
2024/01/05 05:34:05;;;;;;;4.22;1.15;;;8.10;99.90;;;;;;4200169;28;20056;-65
2024/01/05 05:36:08;;;;;;;5.57;1.40;;;8.10;99.90;;;;;;4201887;28;20128;-66
2024/01/05 05:38:11;;;;;;;4.72;1.35;;;8.10;99.90;;;;;;4202165;28;20139;-65
2024/01/05 05:40:16;;;;;;;9.13;1.60;;;8.10;99.90;;;;;;4201373;28;20098;-69
2024/01/05 05:42:28;;;;;;;5.20;1.20;;;8.00;99.90;;;;;;4201678;28;20059;-66
2024/01/05 05:44:33;;;;;;;3.88;1.23;;;8.00;99.90;;;;;;4201689;28;20044;-66
2024/01/05 05:46:35;;;;;;;6.40;1.27;;;8.00;99.90;;;;;;4201923;28;20457;-66
2024/01/05 05:48:38;;;;;;;8.27;1.48;;;8.00;99.90;;;;;;4201994;28;20049;-66
2024/01/05 05:50:41;;;;;;;5.13;1.38;;;8.00;99.90;;;;;;4200871;28;20051;-70
2024/01/05 05:52:45;;;;;;;5.72;1.20;;;8.00;99.90;;;;;;4200901;28;20114;-69
2024/01/05 05:54:49;;;;;;;4.35;1.08;;;8.00;99.90;;;;;;4167177;28;20136;-65
2024/01/05 05:56:56;;;;;;;3.33;1.23;;;8.00;99.90;;;;;;4182636;28;20057;-66
2024/01/05 05:59:00;;;;;;;10.93;1.67;;;8.00;99.90;;;;;;4199496;28;20487;-67
2024/01/05 06:01:02;;;;;;;4.50;1.00;;;8.00;99.90;;;;;;4199403;28;20072;-66
2024/01/05 06:03:06;;;;;;;4.43;1.40;;;7.90;99.90;;;;;;4199882;28;20055;-66
2024/01/05 06:05:09;;;;;;;6.63;1.80;;;7.90;99.90;;;;;;4199741;28;20064;-69
2024/01/05 06:07:11;;;;;;;5.55;1.55;;;7.90;99.90;;;;;;4200850;28;20044;-70
2024/01/05 06:09:14;;;;;;;3.25;1.15;;;7.90;99.90;;;;;;4202065;28;20075;-66
2024/01/05 06:11:18;;;;;;;5.93;1.70;;;7.90;99.90;;;;;;4200732;28;20541;-67
2024/01/05 06:13:20;;;;;;;5.90;1.42;;;7.90;99.90;;;;;;4199418;28;20135;-67
2024/01/05 06:15:23;;;;;;;2.58;1.23;;;7.90;99.90;;;;;;4199693;28;20463;-70
2024/01/05 06:17:27;;;;;;;7.03;1.33;;;7.90;99.90;;;;;;4199384;28;20055;-66
2024/01/05 06:19:30;;;;;;;7.28;1.65;;;7.90;99.90;;;;;;4199215;28;20048;-66
2024/01/05 06:21:32;;;;;;;4.75;1.33;;;7.90;99.90;;;;;;4199271;28;20048;-66
2024/01/05 06:23:34;;;;;;;6.85;1.20;;;7.90;99.90;;;;;;4198759;28;20488;-67
2024/01/05 06:25:36;;;;;;;5.97;1.83;;;7.80;99.90;;;;;;4198987;28;20068;-67
2024/01/05 06:27:38;;;;;;;2.05;0.75;;;7.90;99.90;;;;;;4199159;28;20454;-67
2024/01/05 06:29:40;;;;;;;5.72;1.15;;;7.80;99.90;;;;;;4199060;28;20072;-66
2024/01/05 06:31:44;;;;;;;4.82;1.13;;;7.90;99.90;;;;;;4198643;28;20045;-67
2024/01/05 06:33:47;;;;;;;4.20;1.27;;;7.90;99.90;;;;;;4198928;28;20057;-66
2024/01/05 06:35:49;;;;;;;6.47;1.20;;;7.80;99.90;;;;;;4198942;28;20487;-67
2024/01/05 06:37:51;;;;;;;3.20;1.00;;;7.80;99.90;;;;;;4199700;28;20045;-67
2024/01/05 06:39:53;;;;;;;5.22;1.20;;;7.80;99.90;;;;;;4199389;28;20067;-68
2024/01/05 06:41:58;;;;;;;6.43;1.55;;;7.80;99.90;;;;;;4199878;28;20076;-66
2024/01/05 06:44:00;;;;;;;6.35;1.45;;;7.80;99.90;;;;;;4200004;28;20110;-66
2024/01/05 06:46:03;;;;;;;3.72;1.05;;;7.80;99.90;;;;;;4200259;28;20036;-67
2024/01/05 06:48:07;;;;;;;5.75;1.45;;;7.80;99.90;;;;;;4200088;28;20040;-67
2024/01/05 06:50:09;;;;;;;5.72;1.45;;;7.80;99.90;;;;;;4199530;28;20070;-70
2024/01/05 06:52:12;;;;;;;5.15;1.52;;;7.80;99.90;;;;;;4199071;28;20048;-66
2024/01/05 06:54:14;;;;;;;6.57;1.33;;;7.70;99.90;;;;;;4198266;28;20048;-65
2024/01/05 06:56:18;;;;;;;7.40;1.40;;;7.70;99.90;;;;;;4198872;28;20052;-66
2024/01/05 06:58:21;;;;;;;2.45;1.10;;;7.70;99.90;;;;;;4198651;28;20471;-65
2024/01/05 07:00:23;;;;;;;11.07;1.50;;;7.70;99.90;;;;;;4198784;28;20052;-65
2024/01/05 07:02:25;;;;;;;4.25;1.85;;;7.70;99.90;;;;;;4199698;28;20241;-66
2024/01/05 07:04:29;;;;;;;5.65;1.42;;;7.70;99.90;;;;;;4199568;28;20127;-67
2024/01/05 07:06:31;;;;;;;4.85;1.45;;;7.70;99.90;;;;;;4200073;28;20108;-66
2024/01/05 07:08:35;;;;;;;4.97;1.50;;;7.70;99.90;;;;;;4198764;28;20411;-67
2024/01/05 07:10:38;;;;;;;8.55;1.70;;;7.60;99.90;;;;;;4198817;28;20140;-67
2024/01/05 07:12:40;;;;;;;5.95;1.30;;;7.70;99.90;;;;;;4199291;28;20133;-67
2024/01/05 07:14:42;;;;;;;6.05;1.40;;;7.60;99.90;;;;;;4199695;28;20059;-70
2024/01/05 07:16:44;;;;;;;4.22;1.33;;;7.60;99.90;;;;;;4199679;28;20105;-67
2024/01/05 07:18:47;;;;;;;5.20;1.08;;;7.60;99.90;;;;;;4199156;28;20078;-66
2024/01/05 07:20:52;;;;;;;4.85;1.65;;;7.60;99.90;;;;;;4199033;28;20049;-70
2024/01/05 07:22:54;;;;;;;;;;;7.50;99.90;;;;;;4198881;28;20444;-67
2024/01/05 07:24:57;;;;;;;3.22;1.20;;;7.50;99.90;;;;;;4198537;28;20270;-67
2024/01/05 07:26:59;;;;;;;5.47;1.40;;;7.50;99.90;;;;;;4198611;28;20094;-67
2024/01/05 07:29:01;;;;;;;8.43;1.77;;;7.50;99.90;;;;;;4198373;28;20055;-67
2024/01/05 07:31:04;;;;;;;5.60;1.40;;;7.50;99.90;;;;;;4197920;28;20086;-66
2024/01/05 07:33:06;;;;;;;10.70;2.15;;;7.50;99.90;;;;;;4198970;28;20438;-66
2024/01/05 07:35:10;;;;;;;5.57;1.55;;;7.50;99.90;;;;;;4198403;28;20056;-67
2024/01/05 07:37:17;;;;;;;5.10;1.63;;;7.50;99.90;;;;;;4180883;28;20103;-67
2024/01/05 07:39:19;;;;;;;5.78;1.40;;;7.50;99.90;;;;;;4198165;28;20051;-68
2024/01/05 07:41:22;;;;;;;6.88;1.63;;;7.40;99.90;;;;;;4200206;28;20090;-67
2024/01/05 07:43:24;;;;;;;5.68;1.42;;;7.40;99.90;;;;;;4199509;28;20460;-66
2024/01/05 07:45:26;;;;;;;7.97;1.90;;;7.40;99.90;;;;;;4199795;28;20487;-67
2024/01/05 07:47:28;;;;;;;7.22;1.52;;;7.40;99.90;;;;;;4199287;28;20503;-67
2024/01/05 07:49:30;;;;;;;6.38;1.63;;;7.40;99.90;;;;;;4199301;28;20147;-68
2024/01/05 07:51:33;;;;;;;5.95;1.67;;;7.40;99.90;;;;;;4198552;28;20376;-68
2024/01/05 07:53:38;;;;;;;5.15;1.40;;;7.40;99.90;;;;;;4199070;28;20074;-68
2024/01/05 07:55:40;;;;;;;9.75;1.60;;;7.40;99.90;;;;;;4198442;28;20049;-68
2024/01/05 07:57:43;;;;;;;6.72;1.83;;;7.40;99.90;;;;;;4198289;28;20051;-67
2024/01/05 07:59:49;;;;;;;7.57;2.05;;;7.40;99.90;;;;;;4180656;28;20049;-68
2024/01/05 08:01:52;;;;;;;5.03;1.58;;;7.40;99.90;;;;;;4197851;28;20053;-68
2024/01/05 08:03:54;;;;;;;7.32;1.75;;;7.30;99.90;;;;;;4198396;28;20060;-67
2024/01/05 08:05:56;;;;;;;4.38;1.48;;;7.30;99.90;;;;;;4197692;28;20055;-68
2024/01/05 08:07:59;;;;;;;4.18;1.33;;;7.30;99.90;;;;;;4180260;28;20056;-67
2024/01/05 08:10:03;;;;;;;8.55;2.20;;;7.30;99.90;;;;;;4199564;28;20079;-68
2024/01/05 08:12:05;;;;;;;10.63;2.40;;;7.30;99.90;;;;;;4199181;28;20056;-67
2024/01/05 08:14:07;;;;;;;9.63;1.80;;;7.30;99.90;;;;;;4199395;28;20442;-67
2024/01/05 08:16:10;;;;;;;14.88;2.10;;;7.40;99.90;;;;;;4198607;28;20095;-67
2024/01/05 08:18:12;;;;;;;9.10;1.77;;;7.40;99.90;;;;;;4198442;28;20044;-67
2024/01/05 08:20:15;;;;;;;8.18;1.67;;;7.40;99.90;;;;;;4197190;28;20051;-67
2024/01/05 08:22:17;;;;;;;6.93;1.77;;;7.40;99.90;;;;;;4198107;28;20052;-67
2024/01/05 08:24:21;;;;;;;7.70;1.85;;;7.40;99.90;;;;;;4198273;28;20261;-67
2024/01/05 08:26:25;;;;;;;6.45;1.85;;;7.40;99.90;;;;;;4197175;28;20048;-67
2024/01/05 08:28:27;;;;;;;7.47;1.88;;;7.40;99.90;;;;;;4197093;28;20056;-67
2024/01/05 08:30:30;;;;;;;6.70;1.48;;;7.40;99.90;;;;;;4197669;28;20050;-67
2024/01/05 08:32:35;;;;;;;4.18;1.70;;;7.40;99.90;;;;;;4199221;28;20041;-67
2024/01/05 08:34:38;;;;;;;5.97;1.95;;;7.40;99.90;;;;;;4181861;28;20519;-67
2024/01/05 08:36:42;;;;;;;6.40;1.60;;;7.40;99.90;;;;;;4199949;28;20127;-66
2024/01/05 08:38:44;;;;;;;10.48;2.13;;;7.40;99.90;;;;;;4200165;28;20479;-68
2024/01/05 08:40:50;;;;;;;5.65;1.52;;;7.40;99.90;;;;;;4182182;28;20103;-67
2024/01/05 08:42:54;;;;;;;6.55;1.80;;;7.40;99.90;;;;;;4200188;28;20086;-67
2024/01/05 08:44:56;;;;;;;7.60;1.70;;;7.40;99.90;;;;;;4200138;28;20455;-69
2024/01/05 08:46:58;;;;;;;9.35;2.00;;;7.50;99.90;;;;;;4200163;28;20052;-68
2024/01/05 08:49:00;;;;;;;11.05;2.95;;;7.50;99.90;;;;;;4200135;28;20449;-68
2024/01/05 08:51:03;;;;;;;6.10;2.00;;;7.50;99.90;;;;;;4199694;28;20044;-68
2024/01/05 08:53:05;;;;;;;11.25;1.98;;;7.60;99.90;;;;;;4199723;28;20127;-67
2024/01/05 08:55:07;;;;;;;7.72;1.92;;;7.60;99.90;;;;;;4182010;28;20059;-67
2024/01/05 08:57:11;;;;;;;6.20;2.03;;;7.60;99.90;;;;;;4199833;28;20044;-67
2024/01/05 08:59:15;;;;;;;9.00;2.05;;;7.60;99.90;;;;;;4199566;28;20403;-68
2024/01/05 09:01:17;;;;;;;2.70;1.10;;;7.60;99.90;;;;;;4199507;28;20044;-67
2024/01/05 09:03:19;;;;;;;6.95;2.15;;;7.70;99.90;;;;;;4199687;28;20074;-68
2024/01/05 09:05:21;;;;;;;7.93;2.42;;;7.70;99.90;;;;;;4198121;28;20059;-67
2024/01/05 09:07:24;;;;;;;11.07;2.10;;;7.60;99.90;;;;;;4197765;28;20052;-66
2024/01/05 09:09:26;;;;;;;8.95;2.45;;;7.70;99.90;;;;;;4182526;28;20107;-67
2024/01/05 09:11:28;;;;;;;8.35;2.47;;;7.80;99.90;;;;;;4182876;28;20510;-66
2024/01/05 09:13:30;;;;;;;9.38;2.58;;;7.80;99.90;;;;;;4182414;28;20523;-68
2024/01/05 09:15:34;;;;;;;10.60;2.28;;;7.80;99.90;;;;;;4183054;28;20496;-68
2024/01/05 09:17:36;;;;;;;11.27;2.00;;;7.80;99.90;;;;;;4164944;28;20049;-67
2024/01/05 09:19:38;;;;;;;9.02;1.98;;;7.90;99.90;;;;;;4182377;28;20529;-67
2024/01/05 09:21:40;;;;;;;11.07;2.72;;;7.90;99.90;;;;;;4182884;28;20488;-67
2024/01/05 09:23:43;;;;;;;9.93;2.58;;;7.90;99.90;;;;;;4165320;28;20041;-69
2024/01/05 09:25:45;;;;;;;9.60;2.88;;;7.90;99.90;;;;;;4182922;28;20077;-67
2024/01/05 09:27:47;;;;;;;9.32;2.67;;;7.90;99.90;;;;;;4183517;28;20048;-66
2024/01/05 09:29:50;;;;;;;5.68;2.63;;;8.00;99.90;;;;;;4183190;28;20119;-67
2024/01/05 09:31:53;;;;;;;11.98;2.97;;;8.00;99.90;;;;;;4183327;28;20132;-65
2024/01/05 09:33:55;;;;;;;8.73;2.47;;;8.10;99.90;;;;;;4183612;28;20132;-71
2024/01/05 09:35:57;;;;;;;10.40;2.60;;;8.10;99.90;;;;;;4185654;28;20450;-68
2024/01/05 09:38:01;;;;;;;12.13;3.53;;;8.20;99.90;;;;;;4185989;28;20048;-69
2024/01/05 09:40:04;;;;;;;12.20;3.10;;;8.20;99.90;;;;;;4184786;28;20045;-67
2024/01/05 09:42:07;;;;;;;13.40;2.58;;;8.30;99.90;;;;;;4185273;28;20045;-68
2024/01/05 09:44:10;;;;;;;10.48;3.45;;;8.30;99.90;;;;;;4184915;28;20053;-67
2024/01/05 09:46:13;;;;;;;8.15;2.78;;;8.30;99.90;;;;;;4183535;28;20045;-67
2024/01/05 09:48:18;;;;;;;9.07;2.90;;;8.30;99.90;;;;;;4182920;28;20377;-68
2024/01/05 09:50:21;;;;;;;8.73;2.45;;;8.30;99.90;;;;;;4182489;28;20053;-67
2024/01/05 09:52:23;;;;;;;9.13;3.25;;;8.40;99.90;;;;;;4182598;28;20542;-66
2024/01/05 09:54:26;;;;;;;12.02;3.95;;;8.40;99.90;;;;;;4182639;28;20053;-66
2024/01/05 09:56:29;;;;;;;10.00;2.42;;;8.40;99.90;;;;;;4194587;28;20079;-66
2024/01/05 09:58:31;;;;;;;10.70;2.58;;;8.50;99.90;;;;;;4198639;28;20100;-66
2024/01/05 10:00:33;;;;;;;9.35;2.35;;;8.50;99.90;;;;;;4198505;28;20489;-68
2024/01/05 10:02:41;;;;;;;12.85;2.47;;;8.60;99.90;;;;;;4192727;28;20400;-66
2024/01/05 10:04:44;;;;;;;7.28;2.55;;;8.60;99.90;;;;;;4164170;28;20144;-65
2024/01/05 10:06:57;;;;;;;15.90;5.15;;;8.60;99.90;;;;;;4182270;28;20075;-64
2024/01/05 10:08:59;;;;;;;11.52;3.30;;;8.60;99.90;;;;;;4182161;28;20072;-66
2024/01/05 10:11:03;;;;;;;9.45;2.42;;;8.60;99.90;;;;;;4181825;28;20069;-65
2024/01/05 10:13:05;;;;;;;8.77;1.90;;;8.70;99.90;;;;;;4164091;28;20093;-66
2024/01/05 10:15:08;;;;;;;16.55;2.97;;;8.70;99.90;;;;;;4181580;28;20120;-66
2024/01/05 10:17:11;;;;;;;12.43;2.65;;;8.70;99.90;;;;;;4181770;28;20052;-68
2024/01/05 10:19:15;;;;;;;15.52;2.92;;;8.80;99.90;;;;;;4181666;28;20127;-65
2024/01/05 10:21:22;;;;;;;9.35;2.88;;;8.80;99.90;;;;;;4182075;28;20128;-67
2024/01/05 10:23:25;;;;;;;7.85;2.35;;;8.80;99.90;;;;;;4181653;28;20041;-65
2024/01/05 10:25:28;;;;;;;7.13;2.38;;;8.80;99.90;;;;;;4181524;28;20045;-66
2024/01/05 10:27:30;;;;;;;7.93;2.45;;;8.80;99.90;;;;;;4181520;28;20045;-65
2024/01/05 10:29:33;;;;;;;10.60;2.42;;;8.80;99.90;;;;;;4164093;28;20459;-66
2024/01/05 10:31:36;;;;;;;12.18;3.35;;;8.80;99.90;;;;;;4181649;28;20120;-64
2024/01/05 10:33:49;;;;;;;11.75;2.58;;;8.80;99.90;;;;;;4181777;28;20324;-65
2024/01/05 10:35:51;;;;;;;9.90;3.40;;;8.90;99.90;;;;;;4181352;28;20474;-66
2024/01/05 10:38:03;;;;;;;9.98;2.42;;;8.80;99.90;;;;;;4181536;28;20060;-67
2024/01/05 10:40:06;;;;;;;11.38;3.60;;;8.80;99.90;;;;;;4181285;28;20049;-66
2024/01/05 10:42:21;;;;;;;6.47;1.88;;;8.80;99.90;;;;;;4181729;28;20049;-66
2024/01/05 10:44:24;;;;;;;10.25;3.70;;;8.80;99.90;;;;;;4163748;28;20045;-65
2024/01/05 10:46:28;;;;;;;9.63;3.92;;;8.80;99.90;;;;;;4163316;28;20163;-64